Time;durP1;ratioP1;P1;durP2;ratioP2;P2;SDS_P1;SDS_P2;PMS_P1;PMS_P2;Temp;Humidity;BMP_temperature;BMP_pressure;BME280_temperature;BME280_humidity;BME280_pressure;Samples;Min_cycle;Max_cycle;Signal;HPM_P1;HPM_P2
2021/08/28 00:01:22;;;;;;;6.70;5.83;;;16.50;83.00;;;;;;5062148;28;20485;-43
2021/08/28 00:03:52;;;;;;;5.50;5.07;;;16.50;83.00;;;;;;5049560;28;20449;-43
2021/08/28 00:06:18;;;;;;;6.40;5.80;;;16.50;83.10;;;;;;5064750;28;20453;-43
2021/08/28 00:08:47;;;;;;;8.50;5.80;;;16.50;83.30;;;;;;5065562;28;20508;-43
2021/08/28 00:11:14;;;;;;;7.03;6.00;;;16.60;83.00;;;;;;5063094;28;20458;-43
2021/08/28 00:13:45;;;;;;;7.07;6.00;;;16.60;82.80;;;;;;5055923;28;20770;-43
2021/08/28 00:16:11;;;;;;;9.77;6.67;;;16.60;82.30;;;;;;5056409;28;20492;-43
2021/08/28 00:18:38;;;;;;;6.73;5.90;;;16.60;82.30;;;;;;5068343;28;21029;-43
2021/08/28 00:21:08;;;;;;;7.93;6.40;;;16.50;82.30;;;;;;5064208;28;20512;-43
2021/08/28 00:23:35;;;;;;;6.57;5.77;;;16.50;82.40;;;;;;5065824;28;20461;-43
2021/08/28 00:26:02;;;;;;;7.20;6.57;;;16.50;82.30;;;;;;5036380;28;20455;-43
2021/08/28 00:28:28;;;;;;;7.10;6.47;;;16.50;82.30;;;;;;5042850;28;20974;-43
2021/08/28 00:30:56;;;;;;;6.57;5.97;;;16.50;82.20;;;;;;5054130;28;20509;-42
2021/08/28 00:33:23;;;;;;;8.87;7.23;;;16.50;82.40;;;;;;5050772;28;20501;-42
2021/08/28 00:35:50;;;;;;;7.37;6.73;;;16.40;82.60;;;;;;5072702;28;20822;-43
2021/08/28 00:38:16;;;;;;;7.47;6.13;;;16.40;82.80;;;;;;5069553;28;20456;-43
2021/08/28 00:40:43;;;;;;;8.73;6.77;;;16.40;82.90;;;;;;5059279;28;20488;-43
2021/08/28 00:43:10;;;;;;;7.30;6.60;;;16.40;83.00;;;;;;5066429;28;20462;-43
2021/08/28 00:45:40;;;;;;;6.70;6.10;;;16.40;83.30;;;;;;5068323;28;20457;-43
2021/08/28 00:48:12;;;;;;;7.70;6.90;;;16.50;83.10;;;;;;5053465;28;20449;-43
2021/08/28 00:50:41;;;;;;;9.57;7.17;;;16.50;82.70;;;;;;5059788;28;20460;-43
2021/08/28 00:53:10;;;;;;;8.97;7.17;;;16.50;82.80;;;;;;5067849;28;20835;-43
2021/08/28 00:55:48;;;;;;;7.40;6.67;;;16.40;82.90;;;;;;5064739;28;20463;-43
2021/08/28 00:58:15;;;;;;;7.93;7.13;;;16.40;83.00;;;;;;5064903;28;20975;-43
2021/08/28 01:00:53;;;;;;;7.63;6.93;;;16.40;83.20;;;;;;5062243;28;20460;-43
2021/08/28 01:03:30;;;;;;;7.67;6.80;;;16.40;83.30;;;;;;5067832;28;20803;-43
2021/08/28 01:06:14;;;;;;;11.50;7.17;;;16.40;83.00;;;;;;5070298;28;20450;-43
2021/08/28 01:08:51;;;;;;;7.53;6.73;;;16.40;83.10;;;;;;5063263;28;20462;-43
2021/08/28 01:11:29;;;;;;;7.93;7.23;;;16.40;83.10;;;;;;5060476;28;20461;-43
2021/08/28 01:14:13;;;;;;;7.80;7.00;;;16.40;83.00;;;;;;5064071;28;20465;-43
2021/08/28 01:16:44;;;;;;;7.20;6.50;;;16.40;83.20;;;;;;5065700;28;20462;-43
2021/08/28 01:19:18;;;;;;;7.00;6.30;;;16.40;83.20;;;;;;5064460;28;20576;-43
2021/08/28 01:21:46;;;;;;;9.07;7.60;;;16.40;83.40;;;;;;5068320;28;20469;-43
2021/08/28 01:24:15;;;;;;;8.37;7.57;;;16.40;83.00;;;;;;5068082;28;20966;-43
2021/08/28 01:27:01;;;;;;;8.30;7.50;;;16.40;83.00;;;;;;5038212;28;20812;-43
2021/08/28 01:29:30;;;;;;;8.60;7.70;;;16.40;82.80;;;;;;5067223;28;20954;-43
2021/08/28 01:31:59;;;;;;;7.87;7.17;;;16.40;82.80;;;;;;5050688;28;20469;-43
2021/08/28 01:34:27;;;;;;;8.63;7.83;;;16.40;82.80;;;;;;5068727;28;20465;-43
2021/08/28 01:36:55;;;;;;;13.20;8.70;;;16.40;82.90;;;;;;5063688;28;20551;-43
2021/08/28 01:39:23;;;;;;;10.47;8.23;;;16.40;82.90;;;;;;5065972;28;20467;-43
2021/08/28 01:41:55;;;;;;;7.90;7.10;;;16.40;82.70;;;;;;5067197;28;20866;-43
2021/08/28 01:44:23;;;;;;;9.20;8.30;;;16.40;82.70;;;;;;5066181;28;20470;-43
2021/08/28 01:46:51;;;;;;;8.53;7.63;;;16.40;82.50;;;;;;5062878;28;20831;-43
2021/08/28 01:49:19;;;;;;;9.97;7.97;;;16.40;82.60;;;;;;5049126;28;20462;-43
2021/08/28 01:51:47;;;;;;;8.50;7.50;;;16.40;82.60;;;;;;5078520;28;20462;-43
2021/08/28 01:54:14;;;;;;;10.37;7.70;;;16.40;82.60;;;;;;5049250;28;20461;-43
2021/08/28 01:56:41;;;;;;;8.70;7.67;;;16.40;82.50;;;;;;5061497;28;20456;-43
2021/08/28 01:59:08;;;;;;;8.87;8.00;;;16.50;82.50;;;;;;5046835;28;20454;-43
2021/08/28 02:01:35;;;;;;;11.40;8.70;;;16.50;82.40;;;;;;5050703;28;20575;-43
2021/08/28 02:04:03;;;;;;;9.63;8.20;;;16.50;82.30;;;;;;5066783;28;20453;-43
2021/08/28 02:06:43;;;;;;;9.93;8.57;;;16.50;81.90;;;;;;5042293;28;20455;-43
2021/08/28 02:09:29;;;;;;;9.20;8.20;;;16.40;82.00;;;;;;5079725;28;20454;-43
2021/08/28 02:12:02;;;;;;;7.83;7.03;;;16.40;82.10;;;;;;5064874;28;20472;-43
2021/08/28 02:15:08;;;;;;;12.83;8.17;;;16.40;82.30;;;;;;5061161;28;20955;-44
2021/08/28 02:17:57;;;;;;;13.63;8.87;;;16.40;82.40;;;;;;5054504;28;21211;-44
2021/08/28 02:20:29;;;;;;;8.77;7.90;;;16.50;82.20;;;;;;5058745;28;20743;-44
2021/08/28 02:22:59;;;;;;;9.50;8.33;;;16.50;82.00;;;;;;5059068;28;20493;-44
2021/08/28 02:25:31;;;;;;;10.00;8.33;;;16.40;82.20;;;;;;5047007;28;20461;-44
2021/08/28 02:28:07;;;;;;;9.80;8.30;;;16.40;82.20;;;;;;5049667;28;20783;-44
2021/08/28 02:30:34;;;;;;;9.30;8.10;;;16.40;82.20;;;;;;5075502;28;20852;-44
2021/08/28 02:33:05;;;;;;;8.70;7.80;;;16.40;82.40;;;;;;5076975;28;20534;-44
2021/08/28 02:35:33;;;;;;;12.47;9.87;;;16.40;82.30;;;;;;5079708;28;20466;-44
2021/08/28 02:38:01;;;;;;;8.90;7.60;;;16.40;82.30;;;;;;5060101;28;20462;-44
2021/08/28 02:40:29;;;;;;;10.97;9.10;;;16.30;82.30;;;;;;5063901;28;20473;-44
2021/08/28 02:42:57;;;;;;;10.83;9.20;;;16.30;82.30;;;;;;5063075;28;20486;-44
2021/08/28 02:45:26;;;;;;;9.33;7.70;;;16.30;82.30;;;;;;5060534;28;20899;-44
2021/08/28 02:47:54;;;;;;;8.43;7.60;;;16.30;82.40;;;;;;5052576;28;20454;-44
2021/08/28 02:50:24;;;;;;;9.90;8.33;;;16.20;82.40;;;;;;5060427;28;20457;-44
2021/08/28 02:52:53;;;;;;;12.50;8.50;;;16.20;82.60;;;;;;5077073;28;20469;-44
2021/08/28 02:55:20;;;;;;;9.37;8.10;;;16.20;82.70;;;;;;5063702;28;20468;-44
2021/08/28 02:57:52;;;;;;;8.97;8.10;;;16.20;82.50;;;;;;5056639;28;20473;-44
2021/08/28 03:00:19;;;;;;;10.23;9.00;;;16.20;82.50;;;;;;5046239;28;20462;-44
2021/08/28 03:02:48;;;;;;;10.53;8.80;;;16.20;82.60;;;;;;5060139;28;21183;-44
2021/08/28 03:05:16;;;;;;;9.33;7.63;;;16.10;82.80;;;;;;5059946;28;20450;-44
2021/08/28 03:07:44;;;;;;;11.50;8.47;;;16.10;82.70;;;;;;5046576;28;20461;-44
2021/08/28 03:10:14;;;;;;;10.93;8.03;;;16.10;82.60;;;;;;5064447;28;20469;-44
2021/08/28 03:12:42;;;;;;;11.43;7.80;;;16.10;82.70;;;;;;5055014;28;20562;-44
2021/08/28 03:15:10;;;;;;;9.53;8.47;;;16.00;82.90;;;;;;5063521;28;20475;-44
2021/08/28 03:17:37;;;;;;;10.93;8.97;;;16.00;83.00;;;;;;5059781;28;20469;-44
2021/08/28 03:20:08;;;;;;;8.60;7.80;;;16.00;83.00;;;;;;5077723;28;20474;-45
2021/08/28 03:22:36;;;;;;;9.17;8.20;;;16.00;82.90;;;;;;5046192;28;20482;-44
2021/08/28 03:25:06;;;;;;;9.57;8.73;;;15.90;82.80;;;;;;5054862;28;20461;-44
2021/08/28 03:27:35;;;;;;;9.90;8.23;;;15.90;82.90;;;;;;5067861;28;20513;-44
2021/08/28 03:30:03;;;;;;;8.90;8.00;;;15.80;83.00;;;;;;5050836;28;20544;-44
2021/08/28 03:32:31;;;;;;;9.33;8.40;;;15.80;83.20;;;;;;5060139;28;20842;-44
2021/08/28 03:34:59;;;;;;;9.57;8.23;;;15.80;83.10;;;;;;5079287;28;20460;-44
2021/08/28 03:37:26;;;;;;;9.63;8.73;;;15.80;83.00;;;;;;5065851;28;20840;-44
2021/08/28 03:39:54;;;;;;;7.57;6.77;;;15.80;83.00;;;;;;5061147;28;20470;-44
2021/08/28 03:42:21;;;;;;;8.70;7.80;;;15.80;82.70;;;;;;5048521;28;20488;-44
2021/08/28 03:44:49;;;;;;;8.50;7.60;;;15.80;82.60;;;;;;5049322;28;20481;-44
2021/08/28 03:47:18;;;;;;;8.63;7.47;;;15.80;82.80;;;;;;5073432;28;20445;-44
2021/08/28 03:49:44;;;;;;;13.80;7.90;;;15.80;82.80;;;;;;5066641;28;20453;-44
2021/08/28 03:52:11;;;;;;;8.30;7.40;;;15.80;82.80;;;;;;5069513;28;20559;-44
2021/08/28 03:54:38;;;;;;;8.47;7.47;;;15.70;82.80;;;;;;5064558;28;20472;-44
2021/08/28 03:57:07;;;;;;;10.87;6.80;;;15.70;82.90;;;;;;5050943;28;20986;-44
2021/08/28 03:59:33;;;;;;;8.07;7.03;;;15.70;83.00;;;;;;5068724;28;20460;-44
2021/08/28 04:02:00;;;;;;;8.00;7.20;;;15.70;83.10;;;;;;5064302;28;20501;-44
2021/08/28 04:04:27;;;;;;;8.53;7.53;;;15.70;83.10;;;;;;5062895;28;20495;-44
2021/08/28 04:06:54;;;;;;;8.07;7.27;;;15.70;83.20;;;;;;5074429;28;20463;-45
2021/08/28 04:09:21;;;;;;;8.43;7.50;;;15.70;83.10;;;;;;5065814;28;20488;-44
2021/08/28 04:11:47;;;;;;;10.80;8.40;;;15.70;83.00;;;;;;5072435;28;20452;-44
2021/08/28 04:14:14;;;;;;;8.03;7.17;;;15.70;83.00;;;;;;5085361;28;20453;-44
2021/08/28 04:16:41;;;;;;;7.43;6.73;;;15.70;82.90;;;;;;5058457;28;21039;-44
2021/08/28 04:19:08;;;;;;;8.53;7.13;;;15.70;83.20;;;;;;5069785;28;20466;-44
2021/08/28 04:21:35;;;;;;;6.83;6.23;;;15.70;83.00;;;;;;5083106;28;20485;-44
2021/08/28 04:24:01;;;;;;;8.00;7.07;;;15.70;83.00;;;;;;5070433;28;20471;-44
2021/08/28 04:26:28;;;;;;;7.03;6.33;;;15.70;83.00;;;;;;5069709;28;20454;-44
2021/08/28 04:28:56;;;;;;;9.70;7.50;;;15.70;83.10;;;;;;5068182;28;20449;-44
2021/08/28 04:31:23;;;;;;;7.97;6.70;;;15.70;83.20;;;;;;5068482;28;20465;-44
2021/08/28 04:33:51;;;;;;;7.53;6.83;;;15.70;83.20;;;;;;5051016;28;20511;-44
2021/08/28 04:36:18;;;;;;;6.90;6.20;;;15.70;83.20;;;;;;5072112;28;20580;-44
2021/08/28 04:38:45;;;;;;;8.30;7.50;;;15.70;83.10;;;;;;5059016;28;20460;-44
2021/08/28 04:41:12;;;;;;;9.00;7.00;;;15.70;83.00;;;;;;5063329;28;20992;-44
2021/08/28 04:43:38;;;;;;;7.87;6.90;;;15.70;83.00;;;;;;5063358;28;20485;-44
2021/08/28 04:46:05;;;;;;;8.20;7.33;;;15.70;83.10;;;;;;5071591;28;21832;-44
2021/08/28 04:48:32;;;;;;;8.70;7.70;;;15.70;83.20;;;;;;5062897;28;20468;-44
2021/08/28 04:50:59;;;;;;;10.23;7.57;;;15.70;83.20;;;;;;5068350;28;20824;-44
2021/08/28 04:53:25;;;;;;;8.53;7.53;;;15.70;83.10;;;;;;5070024;28;20450;-44
2021/08/28 04:55:52;;;;;;;9.30;7.03;;;15.70;82.90;;;;;;5072486;28;20461;-44
2021/08/28 04:58:19;;;;;;;8.33;7.60;;;15.70;83.00;;;;;;5069504;28;20463;-44
2021/08/28 05:00:45;;;;;;;10.00;8.10;;;15.70;82.90;;;;;;5049428;28;20978;-44
2021/08/28 05:03:13;;;;;;;10.10;8.00;;;15.70;82.70;;;;;;5065674;28;20539;-44
2021/08/28 05:05:40;;;;;;;10.00;9.00;;;15.70;82.50;;;;;;5070326;28;20535;-44
2021/08/28 05:08:07;;;;;;;8.10;7.30;;;15.70;82.70;;;;;;5066995;28;20453;-44
2021/08/28 05:10:33;;;;;;;9.93;8.93;;;15.70;82.60;;;;;;5082129;28;20545;-44
2021/08/28 05:13:00;;;;;;;8.97;8.07;;;15.70;82.70;;;;;;5063698;28;20461;-44
2021/08/28 05:15:28;;;;;;;9.83;7.87;;;15.70;82.70;;;;;;5052610;28;20544;-44
2021/08/28 05:17:55;;;;;;;13.63;8.90;;;15.70;82.80;;;;;;5055156;28;20467;-44
2021/08/28 05:20:24;;;;;;;9.63;8.50;;;15.70;83.00;;;;;;5069440;28;20555;-44
2021/08/28 05:22:51;;;;;;;11.20;8.43;;;15.70;82.90;;;;;;5068436;28;20489;-44
2021/08/28 05:25:18;;;;;;;9.93;8.93;;;15.70;83.00;;;;;;5066891;28;20449;-44
2021/08/28 05:27:45;;;;;;;10.07;8.10;;;15.80;82.90;;;;;;5067197;28;20474;-44
2021/08/28 05:30:12;;;;;;;11.50;8.70;;;15.80;83.00;;;;;;5060116;28;20806;-44
2021/08/28 05:32:38;;;;;;;11.60;8.83;;;15.80;83.00;;;;;;5068097;28;20854;-44
2021/08/28 05:35:06;;;;;;;9.67;8.27;;;15.80;82.80;;;;;;5050201;28;20838;-44
2021/08/28 05:37:32;;;;;;;11.47;10.27;;;15.90;82.80;;;;;;5067640;28;21004;-44
2021/08/28 05:39:59;;;;;;;10.37;9.10;;;15.90;82.90;;;;;;5082618;28;20472;-44
2021/08/28 05:42:26;;;;;;;11.83;9.20;;;15.90;83.00;;;;;;5068716;28;21148;-44
2021/08/28 05:44:53;;;;;;;10.63;8.90;;;15.90;83.10;;;;;;5053251;28;20472;-44
2021/08/28 05:47:20;;;;;;;10.43;9.30;;;16.00;82.70;;;;;;5054701;28;20454;-44
2021/08/28 05:49:46;;;;;;;10.40;9.10;;;16.00;82.60;;;;;;5065001;28;21434;-44
2021/08/28 05:52:13;;;;;;;11.93;9.03;;;16.00;82.60;;;;;;5070534;28;20563;-44
2021/08/28 05:54:40;;;;;;;8.23;7.43;;;16.00;82.40;;;;;;5060974;28;20466;-44
2021/08/28 05:57:07;;;;;;;9.20;8.30;;;16.10;82.30;;;;;;5054766;28;20831;-44
2021/08/28 05:59:33;;;;;;;9.20;7.90;;;16.10;82.30;;;;;;5065618;28;20471;-44
2021/08/28 06:02:00;;;;;;;9.10;8.20;;;16.10;82.30;;;;;;5042506;28;20837;-44
2021/08/28 06:04:27;;;;;;;10.57;9.00;;;16.10;82.20;;;;;;5048900;28;20478;-44
2021/08/28 06:06:54;;;;;;;8.77;7.87;;;16.10;82.20;;;;;;5071512;28;20486;-44
2021/08/28 06:09:21;;;;;;;8.97;7.87;;;16.10;82.40;;;;;;5062422;28;20462;-44
2021/08/28 06:11:47;;;;;;;9.40;8.50;;;16.20;82.40;;;;;;5069650;28;20456;-44
2021/08/28 06:14:14;;;;;;;11.87;8.60;;;16.20;82.00;;;;;;5064209;28;20462;-44
2021/08/28 06:16:41;;;;;;;13.23;8.83;;;16.30;82.10;;;;;;5070992;28;20465;-44
2021/08/28 06:19:08;;;;;;;10.07;8.60;;;16.20;82.10;;;;;;5062581;28;20454;-44
2021/08/28 06:21:34;;;;;;;9.93;8.93;;;16.20;82.10;;;;;;5068573;28;20500;-44
2021/08/28 06:24:02;;;;;;;10.33;9.27;;;16.20;82.20;;;;;;5068950;28;20515;-44
2021/08/28 06:26:28;;;;;;;9.80;8.90;;;16.20;82.30;;;;;;5071276;28;20450;-44
2021/08/28 06:28:55;;;;;;;8.97;8.07;;;16.30;82.20;;;;;;5056889;28;20442;-44
2021/08/28 06:31:22;;;;;;;9.80;8.90;;;16.30;82.40;;;;;;5050240;28;20473;-48
2021/08/28 06:33:52;;;;;;;9.30;7.67;;;16.30;82.60;;;;;;5066551;28;20541;-44
2021/08/28 06:36:22;;;;;;;14.00;9.40;;;16.30;82.70;;;;;;5066677;28;20465;-44
2021/08/28 06:38:49;;;;;;;9.47;8.47;;;16.30;82.70;;;;;;5074560;28;20845;-44
2021/08/28 06:41:16;;;;;;;11.27;10.07;;;16.40;82.60;;;;;;5054045;28;20458;-44
2021/08/28 06:43:42;;;;;;;11.47;9.70;;;16.40;82.50;;;;;;5061063;28;20486;-44
2021/08/28 06:46:09;;;;;;;9.83;8.70;;;16.40;82.40;;;;;;5059027;28;20478;-44
2021/08/28 06:48:36;;;;;;;12.70;9.93;;;16.40;82.40;;;;;;5070459;28;20484;-45
2021/08/28 06:51:03;;;;;;;12.93;9.20;;;16.40;82.50;;;;;;5067118;28;20936;-44
2021/08/28 06:53:29;;;;;;;13.80;8.47;;;16.40;82.60;;;;;;5060417;28;20479;-44
2021/08/28 06:55:56;;;;;;;10.50;8.73;;;16.40;82.70;;;;;;5052869;28;20484;-44
2021/08/28 06:58:23;;;;;;;11.23;9.93;;;16.30;83.00;;;;;;5053192;28;20729;-44
2021/08/28 07:00:50;;;;;;;10.10;9.10;;;16.40;82.90;;;;;;5063046;28;20879;-45
2021/08/28 07:03:17;;;;;;;11.77;9.77;;;16.40;83.00;;;;;;5053476;28;21042;-45
2021/08/28 07:05:44;;;;;;;10.80;9.50;;;16.40;83.20;;;;;;5053645;28;20500;-45
2021/08/28 07:08:11;;;;;;;14.37;11.50;;;16.40;83.40;;;;;;5059539;28;20456;-45
2021/08/28 07:10:38;;;;;;;11.20;9.10;;;16.40;83.60;;;;;;5067858;28;21956;-45
2021/08/28 07:13:04;;;;;;;11.47;8.80;;;16.40;83.60;;;;;;5050998;28;20469;-45
2021/08/28 07:15:31;;;;;;;13.63;8.83;;;16.40;83.60;;;;;;5064004;28;20982;-45
2021/08/28 07:17:58;;;;;;;10.43;9.30;;;16.50;84.00;;;;;;5067533;28;20462;-44
2021/08/28 07:20:25;;;;;;;11.80;10.00;;;16.50;84.00;;;;;;5079384;28;20488;-45
2021/08/28 07:22:51;;;;;;;10.97;9.60;;;16.60;84.20;;;;;;5051273;28;20485;-45
2021/08/28 07:25:18;;;;;;;10.30;8.67;;;16.60;83.90;;;;;;5064399;28;20445;-45
2021/08/28 07:27:45;;;;;;;12.93;8.97;;;16.60;84.10;;;;;;5058891;28;20490;-45
2021/08/28 07:30:12;;;;;;;10.80;9.47;;;16.60;84.20;;;;;;5047504;28;20465;-44
2021/08/28 07:32:39;;;;;;;11.53;8.67;;;16.60;84.40;;;;;;5064342;28;21292;-45
2021/08/28 07:35:06;;;;;;;10.50;7.50;;;16.70;84.20;;;;;;5067803;28;20450;-45
2021/08/28 07:37:36;;;;;;;10.53;8.57;;;16.80;83.90;;;;;;5068034;28;20457;-45
2021/08/28 07:40:04;;;;;;;9.30;8.30;;;16.70;83.70;;;;;;5065375;28;20617;-45
2021/08/28 07:42:54;;;;;;;10.20;8.27;;;16.70;83.90;;;;;;5049796;28;20489;-45
2021/08/28 07:45:23;;;;;;;11.60;8.80;;;16.70;83.80;;;;;;5074855;28;20458;-44
2021/08/28 07:47:50;;;;;;;9.90;7.80;;;16.70;83.80;;;;;;5061718;28;20548;-44
2021/08/28 07:50:18;;;;;;;9.73;8.43;;;16.60;84.00;;;;;;5070155;28;20859;-44
2021/08/28 07:52:45;;;;;;;12.50;9.00;;;16.70;84.10;;;;;;5063357;28;20459;-44
2021/08/28 07:55:13;;;;;;;8.73;7.93;;;16.70;84.20;;;;;;5068793;28;20453;-44
2021/08/28 07:57:40;;;;;;;12.63;8.80;;;16.70;84.50;;;;;;5061682;28;20445;-44
2021/08/28 08:00:09;;;;;;;11.03;9.80;;;16.80;84.60;;;;;;5057778;28;20463;-44
2021/08/28 08:02:36;;;;;;;10.70;8.80;;;16.80;84.60;;;;;;5083293;28;20476;-44
2021/08/28 08:05:04;;;;;;;9.93;8.77;;;16.90;84.30;;;;;;5053898;28;20920;-44
2021/08/28 08:07:31;;;;;;;11.73;8.37;;;17.00;83.90;;;;;;5069355;28;20983;-44
2021/08/28 08:09:58;;;;;;;10.07;8.80;;;17.00;83.90;;;;;;5070890;28;20978;-44
2021/08/28 08:12:24;;;;;;;9.60;7.67;;;17.10;84.00;;;;;;5050196;28;20456;-44
2021/08/28 08:14:51;;;;;;;9.60;8.20;;;17.10;83.70;;;;;;5061733;28;20465;-44
2021/08/28 08:17:18;;;;;;;9.77;8.77;;;17.10;83.80;;;;;;5053452;28;20462;-44
2021/08/28 08:19:45;;;;;;;9.10;7.63;;;17.10;83.60;;;;;;5068582;28;20949;-44
2021/08/28 08:22:11;;;;;;;8.60;7.80;;;17.10;83.40;;;;;;5060375;28;20821;-44
2021/08/28 08:24:38;;;;;;;8.13;7.20;;;17.20;83.10;;;;;;5060030;28;20489;-44
2021/08/28 08:27:05;;;;;;;8.93;8.03;;;17.20;82.60;;;;;;5069962;28;20459;-44
2021/08/28 08:29:32;;;;;;;10.50;8.77;;;17.10;82.80;;;;;;5066932;28;20459;-44
2021/08/28 08:31:59;;;;;;;8.80;8.00;;;17.10;82.90;;;;;;5071363;28;20465;-44
2021/08/28 08:34:25;;;;;;;11.60;7.70;;;17.10;83.00;;;;;;5071431;28;20441;-44
2021/08/28 08:36:52;;;;;;;8.30;7.50;;;17.10;82.90;;;;;;5060977;28;20469;-44
2021/08/28 08:39:19;;;;;;;10.23;8.87;;;17.10;83.00;;;;;;5071808;28;20444;-44
2021/08/28 08:41:47;;;;;;;8.27;6.70;;;17.10;83.30;;;;;;5058491;28;20461;-44
2021/08/28 08:44:16;;;;;;;8.13;7.27;;;17.20;83.30;;;;;;5068095;28;20473;-44
2021/08/28 08:46:46;;;;;;;7.53;6.73;;;17.30;83.20;;;;;;5068592;28;20456;-45
2021/08/28 08:49:13;;;;;;;7.90;7.10;;;17.50;83.70;;;;;;5065310;28;20464;-44
2021/08/28 08:51:40;;;;;;;10.87;7.03;;;17.60;82.40;;;;;;5062976;28;21150;-44
2021/08/28 08:54:07;;;;;;;8.63;7.60;;;17.60;82.10;;;;;;5052310;28;20839;-44
2021/08/28 08:56:36;;;;;;;6.93;6.23;;;17.70;82.20;;;;;;5072110;28;20466;-44
2021/08/28 08:59:03;;;;;;;7.73;6.70;;;17.80;82.10;;;;;;5055736;28;20453;-45
2021/08/28 09:01:30;;;;;;;13.40;7.20;;;17.90;82.30;;;;;;5068090;28;20458;-45
2021/08/28 09:03:58;;;;;;;10.83;6.83;;;17.90;82.30;;;;;;5066796;28;20727;-46
2021/08/28 09:06:24;;;;;;;7.17;6.20;;;18.00;82.40;;;;;;5062219;28;20462;-46
2021/08/28 09:08:51;;;;;;;5.50;4.80;;;18.10;82.10;;;;;;5071326;28;20454;-46
2021/08/28 09:11:23;;;;;;;5.80;5.13;;;18.20;81.40;;;;;;5073202;28;20540;-46
2021/08/28 09:13:51;;;;;;;8.17;5.07;;;18.30;80.60;;;;;;5034933;28;20468;-46
2021/08/28 09:16:31;;;;;;;6.33;5.10;;;18.40;79.70;;;;;;5066411;28;20833;-46
2021/08/28 09:18:59;;;;;;;5.57;4.97;;;18.50;78.90;;;;;;5071370;28;20470;-46
2021/08/28 09:21:33;;;;;;;4.50;4.10;;;18.50;78.00;;;;;;5047472;28;20481;-46
2021/08/28 09:24:12;;;;;;;5.97;3.90;;;18.60;77.60;;;;;;5084059;28;20489;-46
2021/08/28 09:26:41;;;;;;;4.03;3.63;;;18.70;76.50;;;;;;5085588;28;20460;-46
2021/08/28 09:29:11;;;;;;;3.63;3.33;;;18.60;75.60;;;;;;5074182;28;20458;-46
2021/08/28 09:31:49;;;;;;;4.27;3.87;;;18.60;76.00;;;;;;5068989;28;20495;-46
2021/08/28 09:34:29;;;;;;;7.83;4.93;;;18.60;75.80;;;;;;5070035;28;20541;-46
2021/08/28 09:37:04;;;;;;;6.97;4.10;;;18.50;76.00;;;;;;5051034;28;20965;-46
2021/08/28 09:39:46;;;;;;;60.17;9.20;;;18.40;76.20;;;;;;5071824;28;20468;-46
2021/08/28 09:42:23;;;;;;;6.97;4.70;;;18.40;76.40;;;;;;5066844;28;20469;-46
2021/08/28 09:44:52;;;;;;;6.93;4.90;;;18.30;76.20;;;;;;5084808;28;20493;-46
2021/08/28 09:47:22;;;;;;;5.70;4.60;;;18.30;75.90;;;;;;5067918;28;20854;-47
2021/08/28 09:49:51;;;;;;;4.67;4.03;;;18.30;75.40;;;;;;5071029;28;20469;-46
2021/08/28 09:52:24;;;;;;;4.77;3.47;;;18.30;75.10;;;;;;5077145;28;20437;-47
2021/08/28 09:54:52;;;;;;;3.17;2.70;;;18.20;75.00;;;;;;5051748;28;20466;-46
2021/08/28 09:57:20;;;;;;;9.90;3.00;;;18.20;74.70;;;;;;5061531;28;20462;-47
2021/08/28 09:59:47;;;;;;;8.67;4.00;;;18.20;73.90;;;;;;5044023;28;20454;-47
2021/08/28 10:02:15;;;;;;;17.23;8.60;;;18.20;74.70;;;;;;5076726;28;20441;-46
2021/08/28 10:04:51;;;;;;;27.97;5.87;;;18.10;74.90;;;;;;5059001;28;20508;-46
2021/08/28 10:07:29;;;;;;;5.73;4.90;;;18.10;74.50;;;;;;5048493;28;20464;-47
2021/08/28 10:09:59;;;;;;;5.50;2.90;;;18.10;74.50;;;;;;5053573;28;20547;-46
2021/08/28 10:12:33;;;;;;;4.87;3.33;;;18.10;75.90;;;;;;5062539;28;20477;-46
2021/08/28 10:15:05;;;;;;;3.10;2.63;;;18.00;76.00;;;;;;5067430;28;20478;-46
2021/08/28 10:17:33;;;;;;;3.93;2.53;;;18.10;75.80;;;;;;5071324;28;20462;-53
2021/08/28 10:20:02;;;;;;;2.73;2.53;;;18.00;75.30;;;;;;5075218;28;21311;-46
2021/08/28 10:22:37;;;;;;;3.20;2.80;;;17.90;75.60;;;;;;5051849;28;20485;-47
2021/08/28 10:25:09;;;;;;;5.70;4.20;;;17.80;75.60;;;;;;5071334;28;20475;-46
2021/08/28 10:27:38;;;;;;;2.50;2.30;;;17.80;75.90;;;;;;5071598;28;20483;-46
2021/08/28 10:30:11;;;;;;;3.00;2.50;;;17.80;76.20;;;;;;5055044;28;20475;-46
2021/08/28 10:32:39;;;;;;;3.93;3.33;;;17.80;76.30;;;;;;5062721;28;20459;-46
2021/08/28 10:35:07;;;;;;;2.97;2.30;;;17.80;75.90;;;;;;5056820;28;20461;-46
2021/08/28 10:37:34;;;;;;;6.00;2.80;;;17.70;75.90;;;;;;5061113;28;20454;-46
2021/08/28 10:40:06;;;;;;;2.73;2.53;;;17.70;76.20;;;;;;5054740;28;20985;-46
2021/08/28 10:42:33;;;;;;;3.43;2.20;;;17.70;76.40;;;;;;5067842;28;20666;-46
2021/08/28 10:45:01;;;;;;;2.57;2.37;;;17.70;76.60;;;;;;5064314;28;20576;-46
2021/08/28 10:47:31;;;;;;;3.50;2.37;;;17.70;76.50;;;;;;5047137;28;20461;-46
2021/08/28 10:50:09;;;;;;;4.27;2.97;;;17.70;76.20;;;;;;5065117;28;20461;-46
2021/08/28 10:52:38;;;;;;;2.93;2.63;;;17.70;76.00;;;;;;5059634;28;20462;-46
2021/08/28 10:55:12;;;;;;;3.00;2.70;;;17.70;76.10;;;;;;5067238;28;20455;-46
2021/08/28 10:57:40;;;;;;;2.97;2.67;;;17.70;76.50;;;;;;5059809;28;20456;-46
2021/08/28 11:00:15;;;;;;;2.93;2.63;;;17.70;76.60;;;;;;5059347;28;20454;-46
2021/08/28 11:03:02;;;;;;;3.33;3.10;;;17.80;76.70;;;;;;5064995;28;20463;-46
2021/08/28 11:05:33;;;;;;;2.50;2.30;;;17.80;77.50;;;;;;5057471;28;20498;-46
2021/08/28 11:08:17;;;;;;;4.63;3.33;;;17.70;77.90;;;;;;5064443;28;20456;-46
2021/08/28 11:11:38;;;;;;;3.33;3.03;;;17.70;77.40;;;;;;5061609;28;20537;-46
2021/08/28 11:14:16;;;;;;;3.77;2.90;;;17.70;76.90;;;;;;5049389;28;20550;-46
2021/08/28 11:16:43;;;;;;;3.30;3.10;;;17.70;77.50;;;;;;5045615;28;20453;-46
2021/08/28 11:19:12;;;;;;;4.50;2.90;;;17.60;77.30;;;;;;5064142;28;20458;-46
2021/08/28 11:21:47;;;;;;;2.63;2.43;;;17.60;76.40;;;;;;5070860;28;20477;-46
2021/08/28 11:24:20;;;;;;;9.10;3.73;;;17.60;76.40;;;;;;5074039;28;20484;-46
2021/08/28 11:26:53;;;;;;;2.63;2.40;;;17.60;77.40;;;;;;5070749;28;20525;-46
2021/08/28 11:29:25;;;;;;;3.30;3.03;;;17.60;77.70;;;;;;5069759;28;20510;-46
2021/08/28 11:32:13;;;;;;;4.10;3.20;;;17.60;77.30;;;;;;5049285;28;20458;-46
2021/08/28 11:34:51;;;;;;;3.30;3.00;;;17.50;76.90;;;;;;5031517;28;20520;-46
2021/08/28 11:37:30;;;;;;;3.87;3.57;;;17.50;76.70;;;;;;5073606;28;20465;-46
2021/08/28 11:40:03;;;;;;;5.40;3.97;;;17.50;76.90;;;;;;5066065;28;20466;-46
2021/08/28 11:42:33;;;;;;;17.27;6.60;;;17.50;77.30;;;;;;5068769;28;20467;-46
2021/08/28 11:45:01;;;;;;;9.80;4.63;;;17.50;77.40;;;;;;5067993;28;21021;-46
2021/08/28 11:47:28;;;;;;;5.80;4.80;;;17.50;77.50;;;;;;5068381;28;20455;-46
2021/08/28 11:49:58;;;;;;;5.20;4.20;;;17.50;77.60;;;;;;5055817;28;20873;-46
2021/08/28 11:52:25;;;;;;;5.73;4.13;;;17.50;77.50;;;;;;5054613;28;20475;-46
2021/08/28 11:54:52;;;;;;;6.07;4.47;;;17.50;77.60;;;;;;5050826;28;20484;-46
2021/08/28 11:57:24;;;;;;;3.83;3.50;;;17.50;77.60;;;;;;5073389;28;21029;-46
2021/08/28 11:59:51;;;;;;;4.70;4.00;;;17.60;78.10;;;;;;5068545;28;20663;-45
2021/08/28 12:02:19;;;;;;;6.60;3.43;;;17.60;77.90;;;;;;5052704;28;20448;-46
2021/08/28 12:04:47;;;;;;;5.00;3.33;;;17.70;77.30;;;;;;5071869;28;20480;-46
2021/08/28 12:07:17;;;;;;;6.47;3.27;;;17.70;77.10;;;;;;5050892;28;20463;-46
2021/08/28 12:09:44;;;;;;;27.60;8.03;;;17.80;77.00;;;;;;5053679;28;20616;-46
2021/08/28 12:12:10;;;;;;;12.33;4.20;;;17.80;77.20;;;;;;5058561;28;20956;-46
2021/08/28 12:14:37;;;;;;;4.40;4.00;;;17.90;77.10;;;;;;5070719;28;20950;-46
2021/08/28 12:17:04;;;;;;;7.03;4.10;;;18.10;77.90;;;;;;5068581;28;20814;-46
2021/08/28 12:19:33;;;;;;;4.70;4.30;;;18.10;78.00;;;;;;5071853;28;20897;-46
2021/08/28 12:22:05;;;;;;;3.13;2.77;;;18.20;78.30;;;;;;5064801;28;20482;-46
2021/08/28 12:24:36;;;;;;;2.60;2.10;;;18.20;77.30;;;;;;5056544;28;20487;-46
2021/08/28 12:27:08;;;;;;;3.40;3.10;;;18.20;75.00;;;;;;5074653;28;20451;-46
2021/08/28 12:29:43;;;;;;;2.73;2.47;;;18.10;75.90;;;;;;5073023;28;20453;-46
2021/08/28 12:32:11;;;;;;;2.80;2.60;;;18.10;75.80;;;;;;5075000;28;20821;-46
2021/08/28 12:34:41;;;;;;;2.83;2.63;;;18.00;75.90;;;;;;5065106;28;20461;-46
2021/08/28 12:37:12;;;;;;;5.33;2.80;;;18.00;76.30;;;;;;5072204;28;20452;-46
2021/08/28 12:39:39;;;;;;;2.73;2.53;;;18.00;76.40;;;;;;5071994;28;20461;-46
2021/08/28 12:42:06;;;;;;;2.80;2.60;;;18.00;76.40;;;;;;5065496;28;20461;-46
2021/08/28 12:44:33;;;;;;;2.10;1.90;;;18.10;76.30;;;;;;5067877;28;20565;-46
2021/08/28 12:47:01;;;;;;;1.97;1.83;;;18.10;76.10;;;;;;5056228;28;20663;-46
2021/08/28 12:49:30;;;;;;;2.23;2.03;;;18.10;74.80;;;;;;5068545;28;20481;-46
2021/08/28 12:52:04;;;;;;;2.33;2.13;;;18.20;74.20;;;;;;5076437;28;20453;-46
2021/08/28 12:54:31;;;;;;;2.80;2.03;;;18.30;73.40;;;;;;5073318;28;20457;-46